Time;durP1;ratioP1;P1;durP2;ratioP2;P2;SDS_P1;SDS_P2;PMS_P1;PMS_P2;Temp;Humidity;BMP_temperature;BMP_pressure;BME280_temperature;BME280_humidity;BME280_pressure;Samples;Min_cycle;Max_cycle;Signal;HPM_P1;HPM_P2
2024/02/15 00:02:26;;;;;;;7.77;4.43;;;;;;;4.35;87.57;100979.08;123438;1102;104363;-83
2024/02/15 00:04:57;;;;;;;7.57;4.47;;;;;;;4.34;88.07;100967.80;123689;1102;104280;-81
2024/02/15 00:07:28;;;;;;;8.07;4.10;;;;;;;4.36;87.57;100973.09;123393;1105;104255;-81
2024/02/15 00:10:00;;;;;;;8.57;4.43;;;;;;;4.35;87.87;100979.08;123236;1102;104385;-82
2024/02/15 00:12:32;;;;;;;7.30;4.23;;;;;;;4.36;88.21;100970.50;123682;1105;104261;-82
2024/02/15 00:15:04;;;;;;;10.67;4.50;;;;;;;4.36;87.69;100984.38;123528;1103;104366;-82
2024/02/15 00:17:36;;;;;;;9.40;4.63;;;;;;;4.35;87.76;100982.59;123813;1105;104243;-82
2024/02/15 00:20:09;;;;;;;8.53;4.70;;;;;;;4.35;87.93;100979.08;123382;1105;105711;-81
2024/02/15 00:22:41;;;;;;;6.73;4.20;;;;;;;4.37;88.09;100974.91;123620;1105;104418;-80
2024/02/15 00:25:13;;;;;;;8.80;4.70;;;;;;;4.39;87.66;100976.80;123210;1105;104307;-82
2024/02/15 00:27:47;;;;;;;8.13;4.57;;;;;;;4.41;88.09;100976.90;123335;1102;104418;-83
2024/02/15 00:30:18;;;;;;;7.57;4.23;;;;;;;4.37;87.68;100969.71;123317;1102;104207;-82
2024/02/15 00:32:49;;;;;;;9.20;4.60;;;;;;;4.35;87.84;100963.48;123321;1103;104428;-82
2024/02/15 00:35:20;;;;;;;7.70;4.47;;;;;;;4.35;88.24;100966.09;123350;1105;104284;-82
2024/02/15 00:37:52;;;;;;;7.17;4.33;;;;;;;4.33;87.72;100978.97;123426;1105;104242;-81
2024/02/15 00:40:23;;;;;;;10.00;4.67;;;;;;;4.34;87.77;100977.30;123407;1102;104283;-82
2024/02/15 00:42:54;;;;;;;7.53;4.10;;;;;;;4.32;87.93;100970.28;123274;1102;104216;-82
2024/02/15 00:45:26;;;;;;;6.97;4.47;;;;;;;4.32;87.63;100959.89;123620;1105;104376;-82
2024/02/15 00:47:57;;;;;;;9.27;4.30;;;;;;;4.34;87.67;100966.91;123637;1102;104261;-81
2024/02/15 00:50:28;;;;;;;8.43;4.67;;;;;;;4.31;87.96;100955.48;123783;1102;104294;-82
2024/02/15 00:52:59;;;;;;;6.97;4.30;;;;;;;4.31;87.87;100960.68;123663;1103;104291;-82
2024/02/15 00:55:30;;;;;;;8.77;4.67;;;;;;;4.28;87.44;100967.38;123809;1105;104376;-82
2024/02/15 00:58:01;;;;;;;8.43;4.30;;;;;;;4.28;88.07;100957.88;123810;1105;104335;-82
2024/02/15 01:00:32;;;;;;;8.70;4.87;;;;;;;4.25;87.32;100952.47;123321;1102;104293;-81
2024/02/15 01:03:07;;;;;;;9.25;4.47;;;;;;;4.27;88.15;100949.97;123456;1105;104264;-80
2024/02/15 01:05:38;;;;;;;8.13;4.43;;;;;;;4.28;87.79;100957.88;123682;1105;104262;-82
2024/02/15 01:08:10;;;;;;;7.60;4.80;;;;;;;4.27;88.06;100953.49;123665;1105;104261;-82
2024/02/15 01:10:41;;;;;;;8.63;4.30;;;;;;;4.24;88.24;100958.48;123450;1105;105754;-83
2024/02/15 01:13:13;;;;;;;9.45;5.10;;;;;;;4.24;88.16;100957.56;123468;1105;104286;-82
2024/02/15 01:15:44;;;;;;;10.97;5.37;;;;;;;4.23;88.23;100958.38;123426;1105;104303;-81
2024/02/15 01:18:15;;;;;;;9.00;4.65;;;;;;;4.22;88.35;100973.04;123762;1102;104408;-82
2024/02/15 01:20:46;;;;;;;8.43;4.77;;;;;;;4.21;88.27;100959.98;123372;1105;104259;-82
2024/02/15 01:23:18;;;;;;;8.17;4.13;;;;;;;4.21;88.02;100957.38;123666;1105;104264;-83
2024/02/15 01:25:49;;;;;;;9.37;5.07;;;;;;;4.21;88.19;100963.47;123685;1105;104297;-83
2024/02/15 01:28:20;;;;;;;7.77;4.63;;;;;;;4.21;88.07;100967.77;123555;1105;104364;-82
2024/02/15 01:30:51;;;;;;;8.40;4.70;;;;;;;4.20;87.99;100974.64;123270;1105;104335;-82
2024/02/15 01:33:22;;;;;;;9.73;4.97;;;;;;;4.20;88.31;100971.16;123549;1105;104182;-81
2024/02/15 01:35:53;;;;;;;8.30;4.90;;;;;;;4.21;87.58;100981.65;123391;1102;104310;-80
2024/02/15 01:38:25;;;;;;;10.43;5.10;;;;;;;4.21;88.50;100975.56;123589;1103;104287;-82
2024/02/15 01:40:56;;;;;;;9.73;5.40;;;;;;;4.21;88.34;100983.36;123577;1102;104358;-83
2024/02/15 01:43:27;;;;;;;11.05;5.35;;;;;;;4.19;88.01;100983.25;123618;1105;104296;-82
2024/02/15 01:46:03;;;;;;;11.10;5.40;;;;;;;4.20;87.75;100987.62;123133;1105;104286;-81
2024/02/15 01:48:34;;;;;;;12.47;5.33;;;;;;;4.22;87.85;100993.82;123376;1105;104281;-81
2024/02/15 01:51:06;;;;;;;9.53;5.30;;;;;;;4.22;87.99;100993.82;123634;1105;104389;-81
2024/02/15 01:53:37;;;;;;;10.43;5.00;;;;;;;4.21;88.23;100989.44;123254;1105;104267;-80
2024/02/15 01:56:10;;;;;;;11.57;5.50;;;;;;;4.22;88.01;100992.93;123286;1102;104283;-81
2024/02/15 01:58:43;;;;;;;11.57;5.67;;;;;;;4.23;87.70;100997.34;123336;1102;104207;-79
2024/02/15 02:01:15;;;;;;;9.55;5.12;;;;;;;4.23;88.16;100994.75;123292;1102;104254;-82
2024/02/15 02:03:47;;;;;;;11.20;5.15;;;;;;;4.24;88.42;100996.52;123673;1104;108280;-82
2024/02/15 02:06:19;;;;;;;9.97;5.00;;;;;;;4.21;88.10;100991.16;123473;1105;104290;-81
2024/02/15 02:08:50;;;;;;;11.33;5.43;;;;;;;4.20;88.63;101003.22;123460;1105;104370;-83
2024/02/15 02:11:21;;;;;;;10.83;5.17;;;;;;;4.21;88.53;101001.55;123700;1105;104296;-83
2024/02/15 02:13:56;;;;;;;8.43;4.70;;;;;;;4.20;88.07;100999.73;123608;1102;104281;-81
2024/02/15 02:16:32;;;;;;;10.00;5.17;;;;;;;4.18;88.18;100993.53;123580;1102;104381;-83
2024/02/15 02:19:07;;;;;;;11.40;5.40;;;;;;;4.18;88.22;100998.73;123257;1102;104284;-82
2024/02/15 02:21:39;;;;;;;10.10;5.70;;;;;;;4.19;88.54;101001.44;123237;1102;104657;-82
2024/02/15 02:24:19;;;;;;;10.27;4.80;;;;;;;4.21;88.28;101001.55;123139;1105;104344;-81
2024/02/15 02:26:50;;;;;;;9.17;4.97;;;;;;;4.23;88.16;101007.73;123530;1105;104325;-81
2024/02/15 02:29:22;;;;;;;9.50;4.77;;;;;;;4.22;88.11;101003.32;123282;1104;104281;-82
2024/02/15 02:31:53;;;;;;;10.37;5.10;;;;;;;4.22;88.39;101014.61;123637;1105;104239;-82
2024/02/15 02:34:25;;;;;;;9.53;5.33;;;;;;;4.19;88.64;101003.11;123608;1102;111957;-82
2024/02/15 02:36:56;;;;;;;10.80;5.63;;;;;;;4.18;88.70;101003.92;123482;1105;104715;-81
2024/02/15 02:39:31;;;;;;;13.90;5.90;;;;;;;4.18;88.73;101002.22;123361;1102;104210;-82
2024/02/15 02:42:02;;;;;;;9.13;5.27;;;;;;;4.19;87.93;101008.30;123169;1102;104367;-82
2024/02/15 02:44:34;;;;;;;11.83;5.53;;;;;;;4.19;88.00;101014.42;123238;1103;104268;-82
2024/02/15 02:47:05;;;;;;;11.20;5.30;;;;;;;4.16;88.19;101014.20;123350;1105;104235;-82
2024/02/15 02:49:37;;;;;;;10.90;5.10;;;;;;;4.14;88.42;101015.78;123442;1105;104408;-81
2024/02/15 02:52:09;;;;;;;9.77;5.07;;;;;;;4.14;88.73;101013.18;123364;1105;104258;-81
2024/02/15 02:54:41;;;;;;;8.85;5.10;;;;;;;4.14;88.26;101010.58;123403;1102;104344;-82
2024/02/15 02:57:12;;;;;;;9.60;4.87;;;;;;;4.11;88.23;101006.09;123522;1102;104364;-80
2024/02/15 02:59:43;;;;;;;10.67;5.40;;;;;;;4.11;88.25;101010.37;123470;1102;104376;-81
2024/02/15 03:02:14;;;;;;;12.53;5.77;;;;;;;4.08;88.78;101012.75;123465;1102;104316;-81
2024/02/15 03:04:46;;;;;;;9.33;5.17;;;;;;;4.08;88.18;101025.73;123319;1105;104284;-82
2024/02/15 03:07:18;;;;;;;8.27;4.73;;;;;;;4.08;88.63;101010.16;123582;1104;104373;-82
2024/02/15 03:09:49;;;;;;;10.37;5.33;;;;;;;4.08;89.02;101020.55;123394;1105;104392;-82
2024/02/15 03:12:20;;;;;;;12.50;5.37;;;;;;;4.05;88.23;101018.66;123663;1103;104257;-82
2024/02/15 03:14:51;;;;;;;9.03;4.90;;;;;;;4.04;88.84;101024.63;123372;1102;104258;-82
2024/02/15 03:17:23;;;;;;;10.37;5.47;;;;;;;4.05;88.57;101030.72;123411;1102;104447;-81
2024/02/15 03:19:55;;;;;;;10.70;5.73;;;;;;;4.06;88.01;101022.14;123247;1102;104392;-81
2024/02/15 03:22:29;;;;;;;12.80;6.20;;;;;;;4.06;88.81;101017.84;123181;1102;104319;-82
2024/02/15 03:25:00;;;;;;;12.95;5.72;;;;;;;4.08;88.11;101021.47;123246;1105;104309;-82
2024/02/15 03:27:32;;;;;;;12.60;5.80;;;;;;;4.08;88.94;101012.75;123418;1103;104265;-81
2024/02/15 03:30:04;;;;;;;16.07;6.63;;;;;;;4.08;89.09;101020.55;123207;1105;104354;-82
2024/02/15 03:32:35;;;;;;;12.50;6.17;;;;;;;4.05;88.89;101025.52;123360;1105;104313;-82
2024/02/15 03:35:07;;;;;;;12.13;6.07;;;;;;;4.02;88.47;101017.52;123427;1105;104365;-80
2024/02/15 03:37:39;;;;;;;11.03;5.93;;;;;;;4.02;89.03;101015.84;123284;1102;104299;-81
2024/02/15 03:40:12;;;;;;;11.30;5.83;;;;;;;4.03;88.68;101011.53;123267;1102;104248;-82
2024/02/15 03:42:43;;;;;;;12.87;5.73;;;;;;;4.05;89.05;101012.53;123398;1102;104360;-81
2024/02/15 03:45:14;;;;;;;12.13;5.70;;;;;;;4.05;89.24;101013.45;123314;1102;104306;-82
2024/02/15 03:47:46;;;;;;;12.87;5.90;;;;;;;4.06;88.61;101016.95;123223;1105;104234;-81
2024/02/15 03:50:18;;;;;;;14.90;6.65;;;;;;;4.07;88.44;101013.56;123202;1105;104376;-80
2024/02/15 03:52:51;;;;;;;12.57;6.00;;;;;;;4.09;89.32;101006.77;123309;1105;104369;-82
2024/02/15 03:55:25;;;;;;;13.43;6.13;;;;;;;4.08;88.80;101010.16;123458;1102;104734;-83
2024/02/15 03:57:57;;;;;;;;;;;;;;;4.05;89.37;101012.53;123351;1102;104259;-81
2024/02/15 04:00:29;;;;;;;12.30;6.20;;;;;;;4.02;89.08;101009.72;123370;1102;104323;-82
2024/02/15 04:03:00;;;;;;;15.43;6.50;;;;;;;4.02;89.09;101020.11;123295;1104;104313;-82
2024/02/15 04:05:32;;;;;;;14.93;7.07;;;;;;;4.00;89.60;101012.22;123348;1105;104511;-81
2024/02/15 04:08:05;;;;;;;14.77;6.77;;;;;;;3.99;88.78;101015.63;123427;1105;104364;-82
2024/02/15 04:10:36;;;;;;;14.87;7.33;;;;;;;4.00;89.17;101012.22;123608;1103;104364;-83
2024/02/15 04:13:08;;;;;;;12.70;6.77;;;;;;;4.02;89.75;101020.11;123509;1105;104821;-82
2024/02/15 04:15:39;;;;;;;13.57;6.53;;;;;;;4.00;88.92;101003.53;123378;1102;104261;-81
2024/02/15 04:18:10;;;;;;;17.73;7.60;;;;;;;4.02;89.23;101022.70;123358;1102;104287;-83
2024/02/15 04:20:44;;;;;;;14.83;6.63;;;;;;;4.00;89.19;101013.92;123284;1103;104254;-81
2024/02/15 04:23:16;;;;;;;14.70;7.03;;;;;;;4.00;89.20;101013.92;123414;1102;104338;-83
2024/02/15 04:25:50;;;;;;;12.50;6.07;;;;;;;3.98;89.73;101013.81;123450;1102;104252;-82
2024/02/15 04:28:22;;;;;;;11.70;5.90;;;;;;;3.98;89.63;101012.92;123478;1105;104245;-82
2024/02/15 04:30:53;;;;;;;14.77;7.17;;;;;;;3.96;89.33;101018.90;123471;1105;104271;-81
2024/02/15 04:33:25;;;;;;;17.23;8.37;;;;;;;3.96;89.23;101025.80;123477;1105;104431;-84
2024/02/15 04:35:58;;;;;;;16.70;8.20;;;;;;;3.95;89.92;101022.28;123243;1102;104377;-83
2024/02/15 04:38:29;;;;;;;20.30;7.27;;;;;;;3.95;89.94;101023.98;123323;1102;104361;-83
2024/02/15 04:41:03;;;;;;;16.90;7.40;;;;;;;3.94;90.05;101033.48;123686;1102;104261;-83
2024/02/15 04:43:37;;;;;;;14.37;6.50;;;;;;;3.93;89.59;101021.28;123477;1105;104217;-82
2024/02/15 04:46:09;;;;;;;15.03;6.87;;;;;;;3.92;89.77;101024.66;123361;1102;104241;-83
2024/02/15 04:48:41;;;;;;;14.40;6.83;;;;;;;3.93;89.47;101017.79;123563;1105;104300;-81
2024/02/15 04:51:16;;;;;;;15.93;7.00;;;;;;;3.93;89.95;101017.79;123299;1105;104291;-81
2024/02/15 04:53:48;;;;;;;15.57;6.90;;;;;;;3.94;89.82;101025.69;123251;1105;104261;-80
2024/02/15 04:56:20;;;;;;;16.43;7.67;;;;;;;3.95;89.26;101027.47;123542;1102;104351;-80
2024/02/15 04:58:52;;;;;;;14.85;6.55;;;;;;;3.93;89.65;101034.26;123616;1102;104338;-82
2024/02/15 05:01:23;;;;;;;15.20;6.90;;;;;;;3.95;89.82;101042.16;123423;1102;104242;-81
2024/02/15 05:03:55;;;;;;;14.50;7.10;;;;;;;3.95;89.66;101044.75;123299;1102;104331;-82
2024/02/15 05:06:30;;;;;;;14.93;7.00;;;;;;;3.94;89.97;101037.75;123278;1102;104287;-80
2024/02/15 05:09:05;;;;;;;14.93;7.37;;;;;;;3.91;89.72;101048.84;123648;1105;104178;-81
2024/02/15 05:11:38;;;;;;;13.50;6.73;;;;;;;3.91;89.96;101050.51;123356;1105;104373;-82
2024/02/15 05:14:10;;;;;;;14.20;6.83;;;;;;;3.91;89.70;101055.70;123286;1105;104280;-83
2024/02/15 05:16:43;;;;;;;16.10;6.67;;;;;;;3.92;90.00;101054.92;123786;1102;104366;-82
2024/02/15 05:19:14;;;;;;;14.60;7.07;;;;;;;3.91;89.68;101059.23;123733;1102;104293;-81
2024/02/15 05:21:46;;;;;;;13.07;6.67;;;;;;;3.91;89.70;101064.42;123522;1105;104828;-80
2024/02/15 05:24:19;;;;;;;11.60;5.87;;;;;;;3.89;89.47;101054.70;123443;1102;104348;-80
2024/02/15 05:26:50;;;;;;;13.57;6.43;;;;;;;3.91;90.09;101066.09;123456;1102;104290;-80
2024/02/15 05:29:23;;;;;;;16.33;6.90;;;;;;;3.92;90.04;101066.20;123604;1104;104293;-82
2024/02/15 05:31:54;;;;;;;19.40;7.57;;;;;;;3.92;90.04;101066.20;123552;1105;104265;-82
2024/02/15 05:34:25;;;;;;;15.83;7.60;;;;;;;3.90;90.43;101070.39;123477;1105;104268;-80
2024/02/15 05:36:57;;;;;;;16.00;7.30;;;;;;;3.92;90.25;101070.50;123571;1102;104302;-80
2024/02/15 05:39:28;;;;;;;17.70;7.30;;;;;;;3.94;90.61;101075.02;123631;1102;104290;-82
2024/02/15 05:42:00;;;;;;;15.50;7.30;;;;;;;3.96;90.39;101077.73;123676;1102;104262;-83
2024/02/15 05:44:32;;;;;;;16.93;7.53;;;;;;;3.95;90.12;101082.00;123650;1102;104251;-81
2024/02/15 05:47:04;;;;;;;15.20;7.00;;;;;;;3.94;90.47;101085.41;123559;1102;104357;-79
2024/02/15 05:49:35;;;;;;;15.53;6.73;;;;;;;3.96;90.19;101086.41;123641;1103;104305;-82
2024/02/15 05:52:08;;;;;;;17.50;7.75;;;;;;;3.96;90.09;101078.63;123519;1105;104406;-82
2024/02/15 05:54:41;;;;;;;15.40;7.37;;;;;;;3.98;90.19;101083.03;123786;1105;104297;-81
2024/02/15 05:57:13;;;;;;;16.70;7.70;;;;;;;3.99;90.18;101087.41;123529;1103;104281;-80
2024/02/15 05:59:45;;;;;;;16.13;6.83;;;;;;;4.01;90.08;101096.23;123776;1105;104380;-82
2024/02/15 06:02:17;;;;;;;17.07;8.07;;;;;;;4.02;89.71;101087.63;124027;1105;104339;-80
2024/02/15 06:04:48;;;;;;;17.63;7.93;;;;;;;4.04;90.31;101097.34;123498;1105;104287;-81
2024/02/15 06:07:19;;;;;;;18.37;7.93;;;;;;;4.04;89.78;101092.16;124063;1105;104230;-82
2024/02/15 06:09:51;;;;;;;16.40;7.73;;;;;;;4.05;90.45;101093.97;124002;1102;104239;-80
2024/02/15 06:12:22;;;;;;;15.43;7.60;;;;;;;4.07;90.07;101088.88;124025;1102;104277;-82
2024/02/15 06:14:53;;;;;;;16.40;8.07;;;;;;;4.10;90.35;101094.30;124323;1102;104223;-80
2024/02/15 06:17:27;;;;;;;13.53;7.10;;;;;;;4.11;90.42;101098.67;123679;1105;104242;-82
2024/02/15 06:20:01;;;;;;;14.03;7.10;;;;;;;4.14;90.36;101099.81;124297;1105;104284;-81
2024/02/15 06:22:32;;;;;;;16.15;7.65;;;;;;;4.16;90.38;101081.75;124064;1105;103735;-81
2024/02/15 06:25:05;;;;;;;15.30;7.13;;;;;;;4.19;90.91;101096.62;124048;1102;104686;-80
2024/02/15 06:27:40;;;;;;;15.80;7.60;;;;;;;4.19;90.12;101089.75;124235;1101;102213;-81
2024/02/15 06:41:53;;;;;;;16.77;7.33;;;;;;;4.40;90.31;101092.94;124077;1105;104214;-80
2024/02/15 06:44:25;;;;;;;14.55;7.15;;;;;;;4.44;90.25;101099.24;124142;1105;104241;-80
2024/02/15 06:47:00;;;;;;;14.93;7.53;;;;;;;4.49;89.99;101087.49;124175;1105;104681;-82
2024/02/15 06:49:35;;;;;;;13.83;7.23;;;;;;;4.48;89.60;101096.08;124170;1106;111322;-81
2024/02/15 06:52:09;;;;;;;17.17;7.50;;;;;;;4.45;89.81;101088.06;124189;1103;104258;-82
2024/02/15 06:54:43;;;;;;;16.33;7.17;;;;;;;4.42;89.33;101098.25;124248;1102;104213;-80
2024/02/15 06:57:13;;;;;;;;;;;;;;;4.41;89.26;101104.22;124435;1102;104210;-80
2024/02/15 06:59:46;;;;;;;15.63;6.60;;;;;;;4.41;89.60;101097.36;124556;1103;104277;-83
2024/02/15 07:02:22;;;;;;;17.52;7.65;;;;;;;4.45;89.47;101099.35;124126;1105;102400;-80
2024/02/15 07:04:55;;;;;;;13.37;6.70;;;;;;;4.50;89.58;101097.08;124278;1102;102665;-83
2024/02/15 07:07:26;;;;;;;18.07;8.13;;;;;;;4.55;89.27;101094.80;124280;1103;104368;-81
2024/02/15 07:10:02;;;;;;;19.40;8.00;;;;;;;4.57;89.53;101094.12;124350;1102;108415;-80
2024/02/15 07:12:34;;;;;;;18.03;8.13;;;;;;;4.61;89.68;101097.82;124320;1106;104261;-82
2024/02/15 07:15:11;;;;;;;19.27;8.50;;;;;;;4.59;89.61;101095.11;124253;1103;104268;-81
2024/02/15 07:17:46;;;;;;;19.60;7.87;;;;;;;4.60;89.54;101101.23;124663;1102;104197;-81
2024/02/15 07:20:23;;;;;;;17.33;7.87;;;;;;;4.58;89.44;101095.94;125460;1105;119255;-80
2024/02/15 07:22:56;;;;;;;16.30;7.60;;;;;;;4.63;89.74;101099.74;124133;1105;104165;-81
2024/02/15 07:25:30;;;;;;;16.57;7.73;;;;;;;4.65;89.61;101103.34;124008;1105;104213;-82
2024/02/15 07:28:02;;;;;;;18.40;7.50;;;;;;;4.67;89.85;101109.56;124129;1102;104281;-81
2024/02/15 07:30:36;;;;;;;15.93;7.27;;;;;;;4.68;89.11;101116.55;124155;1105;104258;-83
2024/02/15 07:33:08;;;;;;;13.78;6.78;;;;;;;4.66;89.90;101118.15;124228;1105;104338;-80
2024/02/15 07:35:40;;;;;;;16.20;7.50;;;;;;;4.66;89.89;101120.75;124268;1105;104261;-82
2024/02/15 07:38:16;;;;;;;16.35;8.15;;;;;;;4.68;90.34;101118.26;125348;1105;103457;-82
2024/02/15 07:40:49;;;;;;;19.90;8.75;;;;;;;4.67;89.71;101117.37;124018;1106;112048;-82
2024/02/15 07:43:23;;;;;;;16.03;8.00;;;;;;;4.70;89.70;101119.25;125065;1105;104261;-81
2024/02/15 07:45:54;;;;;;;18.07;8.10;;;;;;;4.72;89.79;101116.76;124359;1102;104227;-80
2024/02/15 07:48:26;;;;;;;16.27;7.27;;;;;;;4.76;89.88;101117.08;124338;1102;104185;-81
2024/02/15 07:50:58;;;;;;;17.33;7.70;;;;;;;4.81;90.04;101120.00;124347;1105;104184;-81
2024/02/15 07:53:31;;;;;;;16.40;7.83;;;;;;;4.87;90.06;101117.81;124093;1105;103782;-83
2024/02/15 07:56:02;;;;;;;15.90;7.77;;;;;;;4.90;89.76;101128.43;124982;1105;104293;-82
2024/02/15 07:58:33;;;;;;;15.83;7.77;;;;;;;4.91;90.02;101137.12;124398;1105;104192;-81
2024/02/15 08:01:14;;;;;;;17.10;7.83;;;;;;;4.87;89.15;101133.42;124379;1102;104245;-81
2024/02/15 08:03:46;;;;;;;19.60;7.93;;;;;;;4.87;89.82;101123.02;124542;1102;104189;-81
2024/02/15 08:06:18;;;;;;;18.70;7.93;;;;;;;4.88;89.34;101126.51;124657;1102;104293;-81
2024/02/15 08:08:51;;;;;;;17.67;8.23;;;;;;;4.91;89.76;101127.64;124203;1102;104261;-81
2024/02/15 08:11:23;;;;;;;17.75;7.85;;;;;;;4.91;90.05;101127.64;124242;1102;104293;-82
2024/02/15 08:13:58;;;;;;;17.50;7.57;;;;;;;4.94;89.57;101129.53;124088;1105;104374;-80
2024/02/15 08:16:30;;;;;;;18.20;8.73;;;;;;;4.98;89.48;101127.25;124186;1102;104293;-81
2024/02/15 08:19:03;;;;;;;18.60;8.47;;;;;;;5.04;89.89;101126.77;124018;1102;104239;-82
2024/02/15 08:21:46;;;;;;;17.53;7.97;;;;;;;5.09;89.25;101130.58;124300;1105;104232;-80
2024/02/15 08:24:26;;;;;;;17.37;8.10;;;;;;;5.13;89.23;101131.70;124524;1103;104335;-80
2024/02/15 08:26:59;;;;;;;16.70;7.90;;;;;;;5.15;89.78;101138.80;124052;1105;104259;-81
2024/02/15 08:29:30;;;;;;;19.37;7.83;;;;;;;5.17;89.54;101139.83;125663;1102;102093;-78
2024/02/15 08:32:02;;;;;;;17.87;8.37;;;;;;;5.13;89.72;101134.31;124244;1102;112780;-80
2024/02/15 08:34:33;;;;;;;17.90;9.07;;;;;;;5.11;89.44;101134.20;124064;1102;104380;-81
2024/02/15 08:37:05;;;;;;;17.87;7.80;;;;;;;5.13;89.59;101132.59;124085;1105;104291;-80
2024/02/15 08:39:36;;;;;;;20.30;9.00;;;;;;;5.13;89.43;101135.20;124403;1105;104317;-80
2024/02/15 08:42:07;;;;;;;22.80;8.20;;;;;;;5.14;89.58;101130.89;124347;1103;104181;-80
2024/02/15 08:44:39;;;;;;;19.15;8.00;;;;;;;5.13;89.41;101126.50;124274;1105;104233;-81
2024/02/15 08:47:12;;;;;;;21.77;9.05;;;;;;;5.15;89.78;101125.79;124284;1105;102119;-80
2024/02/15 08:49:43;;;;;;;21.63;8.43;;;;;;;5.21;89.49;101138.32;124458;1106;104284;-80
2024/02/15 08:52:17;;;;;;;19.23;8.50;;;;;;;5.21;88.63;101135.72;124179;1102;104281;-80
2024/02/15 08:54:51;;;;;;;20.17;8.97;;;;;;;5.21;89.25;101138.32;124732;1102;104207;-79
2024/02/15 08:57:24;;;;;;;19.07;7.63;;;;;;;5.21;89.14;101133.12;124397;1105;104255;-80
2024/02/15 08:59:56;;;;;;;16.80;7.30;;;;;;;5.21;89.05;101135.72;124860;1102;104326;-80
2024/02/15 09:02:28;;;;;;;19.40;8.87;;;;;;;5.20;88.50;101133.91;124769;1104;104370;-80
2024/02/15 09:05:03;;;;;;;19.83;8.40;;;;;;;5.21;88.85;101131.41;124135;1105;104312;-80
2024/02/15 09:07:36;;;;;;;17.87;8.13;;;;;;;5.27;89.13;101128.33;124449;1105;102866;-80
2024/02/15 09:10:10;;;;;;;23.80;9.50;;;;;;;5.31;89.17;101126.81;124146;1105;102987;-79
2024/02/15 09:12:43;;;;;;;19.87;8.30;;;;;;;5.32;87.98;101113.91;124359;1102;102026;-81
2024/02/15 09:15:15;;;;;;;20.30;8.23;;;;;;;5.40;89.03;101120.52;125023;1102;102912;-79
2024/02/15 09:17:46;;;;;;;18.97;8.27;;;;;;;5.51;89.13;101120.34;124579;1102;104178;-81
2024/02/15 09:20:20;;;;;;;21.97;9.10;;;;;;;5.54;88.79;101120.54;124228;1105;104256;-77
2024/02/15 09:22:54;;;;;;;21.37;8.90;;;;;;;5.58;88.76;101115.63;124135;1105;104246;-79
2024/02/15 09:25:26;;;;;;;19.75;8.30;;;;;;;5.64;88.66;101117.75;124091;1102;104271;-80
2024/02/15 09:27:59;;;;;;;22.10;8.53;;;;;;;5.66;88.99;101116.14;124194;1105;104297;-79
2024/02/15 09:30:31;;;;;;;20.83;8.83;;;;;;;5.65;88.78;101114.33;124236;1102;104248;-79
2024/02/15 09:33:10;;;;;;;18.37;7.97;;;;;;;5.67;88.89;101111.82;124257;1105;104353;-79
2024/02/15 09:35:41;;;;;;;22.80;9.03;;;;;;;5.71;88.56;101119.05;124156;1103;104185;-79
2024/02/15 09:38:19;;;;;;;20.47;8.53;;;;;;;5.76;88.43;101115.02;124146;1104;104181;-80
2024/02/15 09:40:52;;;;;;;19.70;8.67;;;;;;;5.78;88.42;101120.33;124047;1106;104406;-79
2024/02/15 09:43:29;;;;;;;23.63;9.03;;;;;;;5.73;88.26;101120.03;124114;1102;108123;-81
2024/02/15 09:46:04;;;;;;;20.20;8.65;;;;;;;5.70;88.21;101118.16;124511;1102;104254;-81
2024/02/15 09:48:37;;;;;;;18.10;8.37;;;;;;;5.68;87.95;101119.73;123971;1103;104280;-80
2024/02/15 09:51:12;;;;;;;20.03;8.80;;;;;;;5.71;88.07;101119.05;124142;1102;104233;-82
2024/02/15 09:53:44;;;;;;;20.27;8.90;;;;;;;5.74;87.60;101114.03;125147;1104;118723;-78
2024/02/15 09:56:16;;;;;;;22.87;8.77;;;;;;;5.78;87.52;101117.73;124108;1105;104172;-78
2024/02/15 09:58:50;;;;;;;21.63;8.70;;;;;;;5.83;87.91;101114.63;124078;1105;104278;-79
2024/02/15 10:01:26;;;;;;;19.47;8.90;;;;;;;5.90;88.23;101105.50;124077;1105;104298;-78
2024/02/15 10:04:07;;;;;;;22.87;9.10;;;;;;;5.96;87.77;101108.50;123895;1102;104300;-79
2024/02/15 10:06:40;;;;;;;21.77;8.23;;;;;;;6.02;87.46;101114.13;124080;1102;104297;-79
2024/02/15 10:09:31;;;;;;;20.30;8.57;;;;;;;6.04;87.85;101107.30;124044;1102;104233;-80
2024/02/15 10:12:06;;;;;;;20.03;9.20;;;;;;;6.08;87.80;101116.24;124086;1102;104271;-78
2024/02/15 10:14:38;;;;;;;21.77;9.00;;;;;;;6.06;87.18;101118.75;123958;1103;104254;-80
2024/02/15 10:17:12;;;;;;;21.70;10.23;;;;;;;6.03;87.25;101115.95;124061;1105;104316;-80
2024/02/15 10:19:44;;;;;;;23.27;9.47;;;;;;;6.01;87.54;101112.32;124493;1105;104268;-79
2024/02/15 10:22:15;;;;;;;24.73;10.40;;;;;;;6.05;87.98;101119.54;124154;1105;104287;-80
2024/02/15 10:24:48;;;;;;;22.37;9.07;;;;;;;6.06;88.01;101112.61;124135;1105;104184;-79
2024/02/15 10:27:26;;;;;;;19.20;9.03;;;;;;;6.07;87.30;101123.13;123912;1105;104185;-80
2024/02/15 10:30:18;;;;;;;21.57;9.80;;;;;;;6.03;87.35;101113.34;123996;1105;104232;-80
2024/02/15 10:32:51;;;;;;;23.23;10.10;;;;;;;5.98;87.36;101119.05;123981;1105;104364;-80
2024/02/15 10:35:24;;;;;;;21.57;10.07;;;;;;;5.91;87.57;101123.83;124063;1104;104735;-80
2024/02/15 10:38:09;;;;;;;20.13;9.63;;;;;;;5.89;87.84;101120.23;124281;1105;103959;-79
2024/02/15 10:40:45;;;;;;;22.27;9.50;;;;;;;5.88;87.32;101117.53;124328;1106;104415;-80
2024/02/15 10:43:19;;;;;;;22.73;9.63;;;;;;;5.84;87.63;101110.31;123999;1105;102080;-78
2024/02/15 10:45:52;;;;;;;23.67;10.63;;;;;;;5.86;87.36;101108.70;124069;1102;101944;-81
2024/02/15 10:48:24;;;;;;;21.15;9.20;;;;;;;5.86;87.77;101104.41;124167;1102;104345;-80
2024/02/15 10:50:57;;;;;;;20.55;9.95;;;;;;;5.92;87.67;101109.09;124495;1102;103404;-81
2024/02/15 10:53:33;;;;;;;22.70;10.37;;;;;;;5.96;87.68;101111.10;125825;1103;102475;-79
2024/02/15 10:56:13;;;;;;;24.50;11.63;;;;;;;6.02;87.77;101116.73;125894;1103;102855;-80
2024/02/15 10:58:52;;;;;;;26.37;11.17;;;;;;;5.99;87.11;101107.84;125954;1103;102381;-78
2024/02/15 11:01:26;;;;;;;22.90;10.37;;;;;;;5.99;87.60;101111.33;125983;1105;101974;-79
2024/02/15 11:04:08;;;;;;;22.60;10.20;;;;;;;6.00;87.42;101102.73;125893;1104;101989;-80
2024/02/15 11:06:49;;;;;;;23.73;10.77;;;;;;;6.02;87.63;101102.82;125945;1102;111410;-79
2024/02/15 11:09:21;;;;;;;23.47;10.37;;;;;;;6.06;87.78;101097.91;126017;1102;101351;-80
2024/02/15 11:12:00;;;;;;;21.23;9.23;;;;;;;6.10;87.72;101105.09;124347;1105;103441;-78
2024/02/15 11:14:35;;;;;;;22.60;10.00;;;;;;;6.13;87.14;101106.11;124448;1102;102647;-78
2024/02/15 11:17:09;;;;;;;23.20;11.00;;;;;;;6.11;87.52;101104.30;124737;1105;102198;-80
2024/02/15 11:19:46;;;;;;;24.55;10.98;;;;;;;6.15;87.96;101105.38;124345;1105;104364;-78
2024/02/15 11:22:19;;;;;;;20.67;10.33;;;;;;;6.11;87.34;101112.11;124466;1102;104255;-80
2024/02/15 11:24:53;;;;;;;23.47;10.23;;;;;;;6.10;87.70;101110.30;124223;1105;104232;-79
2024/02/15 11:27:31;;;;;;;26.17;11.17;;;;;;;6.09;87.43;101105.92;124210;1105;108789;-79
2024/02/15 11:30:09;;;;;;;22.13;10.53;;;;;;;6.10;87.67;101104.20;124291;1102;104178;-79
2024/02/15 11:32:49;;;;;;;22.40;10.73;;;;;;;6.13;87.19;101104.39;124259;1102;104255;-82
2024/02/15 11:35:22;;;;;;;21.27;9.90;;;;;;;6.14;87.42;101094.86;124101;1102;104175;-80
2024/02/15 11:38:03;;;;;;;24.57;11.00;;;;;;;6.14;87.74;101093.18;124147;1104;102753;-81
2024/02/15 11:41:08;;;;;;;21.77;10.03;;;;;;;6.17;87.57;101084.63;124167;1105;104210;-82
2024/02/15 11:43:55;;;;;;;22.73;9.20;;;;;;;6.13;87.83;101088.76;124111;1105;104229;-80
2024/02/15 11:46:34;;;;;;;20.60;9.57;;;;;;;6.14;87.60;101089.66;124099;1105;104334;-80
2024/02/15 11:49:18;;;;;;;22.50;10.00;;;;;;;6.17;87.92;101095.05;124767;1102;104184;-80